sensor_id;sensor_type;location;lat;lon;timestamp;P1;durP1;ratioP1;P2;durP2;ratioP2
32407;SDS011;18869;55.970;37.502;2023-03-01T00:01:13;4.13;;;3.83;;
32407;SDS011;18869;55.970;37.502;2023-03-01T00:03:42;4.70;;;4.50;;
32407;SDS011;18869;55.970;37.502;2023-03-01T00:06:10;5.07;;;4.67;;
32407;SDS011;18869;55.970;37.502;2023-03-01T00:08:38;6.20;;;5.63;;
32407;SDS011;18869;55.970;37.502;2023-03-01T00:11:07;7.40;;;6.90;;
32407;SDS011;18869;55.970;37.502;2023-03-01T00:13:35;6.23;;;5.60;;
32407;SDS011;18869;55.970;37.502;2023-03-01T00:16:03;4.80;;;4.50;;
32407;SDS011;18869;55.970;37.502;2023-03-01T00:18:33;4.97;;;4.57;;
32407;SDS011;18869;55.970;37.502;2023-03-01T00:21:02;5.60;;;5.10;;
32407;SDS011;18869;55.970;37.502;2023-03-01T00:23:29;4.27;;;3.97;;
32407;SDS011;18869;55.970;37.502;2023-03-01T00:25:58;5.83;;;5.43;;
32407;SDS011;18869;55.970;37.502;2023-03-01T00:28:26;5.93;;;5.47;;
32407;SDS011;18869;55.970;37.502;2023-03-01T00:30:54;5.10;;;4.70;;
32407;SDS011;18869;55.970;37.502;2023-03-01T00:33:22;5.13;;;4.37;;
32407;SDS011;18869;55.970;37.502;2023-03-01T00:35:52;4.87;;;4.67;;
32407;SDS011;18869;55.970;37.502;2023-03-01T00:38:19;4.20;;;3.87;;
32407;SDS011;18869;55.970;37.502;2023-03-01T00:40:48;5.00;;;4.53;;
32407;SDS011;18869;55.970;37.502;2023-03-01T00:43:16;5.00;;;4.70;;
32407;SDS011;18869;55.970;37.502;2023-03-01T00:45:44;5.20;;;5.00;;
32407;SDS011;18869;55.970;37.502;2023-03-01T00:48:12;4.93;;;4.67;;
32407;SDS011;18869;55.970;37.502;2023-03-01T00:50:40;4.97;;;4.57;;
32407;SDS011;18869;55.970;37.502;2023-03-01T00:53:10;5.47;;;5.07;;
32407;SDS011;18869;55.970;37.502;2023-03-01T00:55:38;4.67;;;4.23;;
32407;SDS011;18869;55.970;37.502;2023-03-01T00:58:06;4.67;;;4.37;;
32407;SDS011;18869;55.970;37.502;2023-03-01T01:00:33;4.70;;;4.50;;
32407;SDS011;18869;55.970;37.502;2023-03-01T01:03:02;5.10;;;4.80;;
32407;SDS011;18869;55.970;37.502;2023-03-01T01:05:29;5.13;;;4.83;;
32407;SDS011;18869;55.970;37.502;2023-03-01T01:07:57;4.60;;;4.40;;
32407;SDS011;18869;55.970;37.502;2023-03-01T01:10:26;4.83;;;4.43;;
32407;SDS011;18869;55.970;37.502;2023-03-01T01:12:54;4.00;;;3.90;;
32407;SDS011;18869;55.970;37.502;2023-03-01T01:15:22;4.90;;;4.70;;
32407;SDS011;18869;55.970;37.502;2023-03-01T01:17:52;3.90;;;3.70;;
32407;SDS011;18869;55.970;37.502;2023-03-01T01:20:20;4.63;;;4.33;;
32407;SDS011;18869;55.970;37.502;2023-03-01T01:22:48;4.40;;;4.20;;
32407;SDS011;18869;55.970;37.502;2023-03-01T01:25:17;4.93;;;4.30;;
32407;SDS011;18869;55.970;37.502;2023-03-01T01:27:46;4.50;;;4.10;;
32407;SDS011;18869;55.970;37.502;2023-03-01T01:30:14;4.43;;;4.23;;
32407;SDS011;18869;55.970;37.502;2023-03-01T01:32:42;5.53;;;5.17;;
32407;SDS011;18869;55.970;37.502;2023-03-01T01:35:10;4.43;;;4.13;;
32407;SDS011;18869;55.970;37.502;2023-03-01T01:37:39;3.90;;;3.70;;
32407;SDS011;18869;55.970;37.502;2023-03-01T01:40:08;4.37;;;4.17;;
32407;SDS011;18869;55.970;37.502;2023-03-01T01:42:37;6.50;;;4.30;;
32407;SDS011;18869;55.970;37.502;2023-03-01T01:45:26;4.67;;;4.33;;
32407;SDS011;18869;55.970;37.502;2023-03-01T01:47:59;4.63;;;4.23;;
32407;SDS011;18869;55.970;37.502;2023-03-01T01:50:29;5.23;;;4.90;;
32407;SDS011;18869;55.970;37.502;2023-03-01T01:53:05;4.60;;;4.27;;
32407;SDS011;18869;55.970;37.502;2023-03-01T01:55:34;4.90;;;4.67;;
32407;SDS011;18869;55.970;37.502;2023-03-01T01:58:04;5.00;;;4.70;;
32407;SDS011;18869;55.970;37.502;2023-03-01T02:00:35;6.03;;;5.73;;
32407;SDS011;18869;55.970;37.502;2023-03-01T02:03:05;4.80;;;4.50;;
32407;SDS011;18869;55.970;37.502;2023-03-01T02:05:37;3.57;;;3.40;;
32407;SDS011;18869;55.970;37.502;2023-03-01T02:08:10;6.20;;;5.47;;
32407;SDS011;18869;55.970;37.502;2023-03-01T02:10:39;4.60;;;4.30;;
32407;SDS011;18869;55.970;37.502;2023-03-01T02:13:08;5.30;;;4.30;;
32407;SDS011;18869;55.970;37.502;2023-03-01T02:15:38;6.43;;;5.83;;
32407;SDS011;18869;55.970;37.502;2023-03-01T02:18:07;5.13;;;4.93;;
32407;SDS011;18869;55.970;37.502;2023-03-01T02:20:38;5.30;;;4.83;;
32407;SDS011;18869;55.970;37.502;2023-03-01T02:23:11;4.97;;;4.67;;
32407;SDS011;18869;55.970;37.502;2023-03-01T02:25:41;4.83;;;4.20;;
32407;SDS011;18869;55.970;37.502;2023-03-01T02:28:30;5.67;;;5.20;;
32407;SDS011;18869;55.970;37.502;2023-03-01T02:30:59;4.30;;;4.00;;
32407;SDS011;18869;55.970;37.502;2023-03-01T02:33:44;5.10;;;4.87;;
32407;SDS011;18869;55.970;37.502;2023-03-01T02:36:15;5.63;;;4.93;;
32407;SDS011;18869;55.970;37.502;2023-03-01T02:38:46;5.67;;;5.23;;
32407;SDS011;18869;55.970;37.502;2023-03-01T02:41:15;4.70;;;4.40;;
32407;SDS011;18869;55.970;37.502;2023-03-01T02:43:44;5.23;;;4.83;;
32407;SDS011;18869;55.970;37.502;2023-03-01T02:46:14;5.47;;;5.07;;
32407;SDS011;18869;55.970;37.502;2023-03-01T02:48:44;5.20;;;4.67;;
32407;SDS011;18869;55.970;37.502;2023-03-01T02:51:17;5.70;;;5.20;;
32407;SDS011;18869;55.970;37.502;2023-03-01T02:54:12;5.13;;;4.83;;
32407;SDS011;18869;55.970;37.502;2023-03-01T02:56:44;5.33;;;4.93;;
32407;SDS011;18869;55.970;37.502;2023-03-01T02:59:16;5.47;;;4.90;;
32407;SDS011;18869;55.970;37.502;2023-03-01T03:01:47;4.97;;;4.67;;
32407;SDS011;18869;55.970;37.502;2023-03-01T03:04:16;6.00;;;5.57;;
32407;SDS011;18869;55.970;37.502;2023-03-01T03:06:47;5.27;;;4.90;;
32407;SDS011;18869;55.970;37.502;2023-03-01T03:09:16;5.40;;;5.00;;
32407;SDS011;18869;55.970;37.502;2023-03-01T03:11:45;6.00;;;5.03;;
32407;SDS011;18869;55.970;37.502;2023-03-01T03:14:14;6.13;;;5.10;;
32407;SDS011;18869;55.970;37.502;2023-03-01T03:16:45;5.20;;;4.90;;
32407;SDS011;18869;55.970;37.502;2023-03-01T03:19:14;5.23;;;4.83;;
32407;SDS011;18869;55.970;37.502;2023-03-01T03:21:42;5.23;;;4.83;;
32407;SDS011;18869;55.970;37.502;2023-03-01T03:24:11;7.07;;;5.53;;
32407;SDS011;18869;55.970;37.502;2023-03-01T03:26:39;6.20;;;5.60;;
32407;SDS011;18869;55.970;37.502;2023-03-01T03:29:06;5.40;;;4.90;;
32407;SDS011;18869;55.970;37.502;2023-03-01T03:31:34;5.50;;;5.13;;
32407;SDS011;18869;55.970;37.502;2023-03-01T03:34:04;5.87;;;5.43;;
32407;SDS011;18869;55.970;37.502;2023-03-01T03:36:32;6.37;;;5.87;;
32407;SDS011;18869;55.970;37.502;2023-03-01T03:38:59;5.33;;;5.03;;
32407;SDS011;18869;55.970;37.502;2023-03-01T03:41:27;5.87;;;5.57;;
32407;SDS011;18869;55.970;37.502;2023-03-01T03:43:55;7.80;;;5.63;;
32407;SDS011;18869;55.970;37.502;2023-03-01T03:46:23;6.30;;;5.70;;
32407;SDS011;18869;55.970;37.502;2023-03-01T03:48:51;6.50;;;5.80;;
32407;SDS011;18869;55.970;37.502;2023-03-01T03:51:20;5.13;;;4.83;;
32407;SDS011;18869;55.970;37.502;2023-03-01T03:53:48;6.80;;;5.63;;
32407;SDS011;18869;55.970;37.502;2023-03-01T03:56:17;7.47;;;4.60;;
32407;SDS011;18869;55.970;37.502;2023-03-01T03:58:44;6.03;;;5.73;;
32407;SDS011;18869;55.970;37.502;2023-03-01T04:01:11;5.03;;;4.73;;
32407;SDS011;18869;55.970;37.502;2023-03-01T04:03:39;5.80;;;4.87;;
32407;SDS011;18869;55.970;37.502;2023-03-01T04:06:07;6.50;;;5.90;;
32407;SDS011;18869;55.970;37.502;2023-03-01T04:08:36;5.50;;;5.10;;
32407;SDS011;18869;55.970;37.502;2023-03-01T04:11:05;6.10;;;5.13;;
32407;SDS011;18869;55.970;37.502;2023-03-01T04:13:46;6.13;;;5.20;;
32407;SDS011;18869;55.970;37.502;2023-03-01T04:16:14;6.50;;;6.03;;
32407;SDS011;18869;55.970;37.502;2023-03-01T04:18:43;5.57;;;5.07;;
32407;SDS011;18869;55.970;37.502;2023-03-01T04:21:11;9.80;;;6.43;;
32407;SDS011;18869;55.970;37.502;2023-03-01T04:23:41;16.53;;;9.57;;
32407;SDS011;18869;55.970;37.502;2023-03-01T04:26:08;9.20;;;7.43;;
32407;SDS011;18869;55.970;37.502;2023-03-01T04:28:37;8.10;;;7.00;;
32407;SDS011;18869;55.970;37.502;2023-03-01T04:31:06;6.90;;;6.30;;
32407;SDS011;18869;55.970;37.502;2023-03-01T04:33:39;6.80;;;5.57;;
32407;SDS011;18869;55.970;37.502;2023-03-01T04:36:09;5.47;;;5.10;;
32407;SDS011;18869;55.970;37.502;2023-03-01T04:38:37;6.27;;;5.47;;
32407;SDS011;18869;55.970;37.502;2023-03-01T04:41:07;5.47;;;5.17;;
32407;SDS011;18869;55.970;37.502;2023-03-01T04:43:36;6.47;;;4.97;;
32407;SDS011;18869;55.970;37.502;2023-03-01T04:46:04;5.87;;;4.67;;
32407;SDS011;18869;55.970;37.502;2023-03-01T04:48:36;5.77;;;5.27;;
32407;SDS011;18869;55.970;37.502;2023-03-01T04:51:05;5.23;;;4.73;;
32407;SDS011;18869;55.970;37.502;2023-03-01T04:53:33;6.13;;;5.83;;
32407;SDS011;18869;55.970;37.502;2023-03-01T04:56:02;4.60;;;4.27;;
32407;SDS011;18869;55.970;37.502;2023-03-01T04:58:31;5.23;;;4.83;;
32407;SDS011;18869;55.970;37.502;2023-03-01T05:01:00;6.80;;;5.50;;
32407;SDS011;18869;55.970;37.502;2023-03-01T05:03:29;6.43;;;5.80;;
32407;SDS011;18869;55.970;37.502;2023-03-01T05:05:58;6.03;;;5.30;;
32407;SDS011;18869;55.970;37.502;2023-03-01T05:08:26;5.77;;;5.10;;
32407;SDS011;18869;55.970;37.502;2023-03-01T05:10:54;5.60;;;5.03;;
32407;SDS011;18869;55.970;37.502;2023-03-01T05:13:22;5.90;;;5.53;;
32407;SDS011;18869;55.970;37.502;2023-03-01T05:15:54;5.37;;;4.87;;
32407;SDS011;18869;55.970;37.502;2023-03-01T05:18:23;5.43;;;5.13;;
32407;SDS011;18869;55.970;37.502;2023-03-01T05:20:52;5.43;;;4.43;;
32407;SDS011;18869;55.970;37.502;2023-03-01T05:23:22;4.27;;;3.97;;
32407;SDS011;18869;55.970;37.502;2023-03-01T05:25:50;5.93;;;4.73;;
32407;SDS011;18869;55.970;37.502;2023-03-01T05:28:18;4.60;;;4.33;;
32407;SDS011;18869;55.970;37.502;2023-03-01T05:30:46;4.50;;;4.20;;
32407;SDS011;18869;55.970;37.502;2023-03-01T05:33:19;4.80;;;4.20;;
32407;SDS011;18869;55.970;37.502;2023-03-01T05:35:47;4.10;;;3.90;;
32407;SDS011;18869;55.970;37.502;2023-03-01T05:38:15;5.87;;;5.47;;
32407;SDS011;18869;55.970;37.502;2023-03-01T05:40:45;6.43;;;4.47;;
32407;SDS011;18869;55.970;37.502;2023-03-01T05:43:15;4.73;;;4.43;;
32407;SDS011;18869;55.970;37.502;2023-03-01T05:45:44;5.63;;;5.13;;
32407;SDS011;18869;55.970;37.502;2023-03-01T05:48:12;6.70;;;4.70;;
32407;SDS011;18869;55.970;37.502;2023-03-01T05:50:42;5.77;;;5.37;;
32407;SDS011;18869;55.970;37.502;2023-03-01T05:53:11;5.13;;;4.73;;
32407;SDS011;18869;55.970;37.502;2023-03-01T05:55:39;4.93;;;4.53;;
32407;SDS011;18869;55.970;37.502;2023-03-01T05:58:10;4.93;;;4.53;;
32407;SDS011;18869;55.970;37.502;2023-03-01T06:00:39;6.13;;;5.17;;
32407;SDS011;18869;55.970;37.502;2023-03-01T06:03:09;4.90;;;4.40;;
32407;SDS011;18869;55.970;37.502;2023-03-01T06:05:37;7.57;;;5.57;;
32407;SDS011;18869;55.970;37.502;2023-03-01T06:08:06;6.00;;;5.47;;
32407;SDS011;18869;55.970;37.502;2023-03-01T06:10:34;8.13;;;5.00;;
32407;SDS011;18869;55.970;37.502;2023-03-01T06:13:02;5.70;;;5.13;;
32407;SDS011;18869;55.970;37.502;2023-03-01T06:15:29;7.37;;;4.93;;
32407;SDS011;18869;55.970;37.502;2023-03-01T06:17:58;6.43;;;5.13;;
32407;SDS011;18869;55.970;37.502;2023-03-01T06:20:25;5.90;;;4.67;;
32407;SDS011;18869;55.970;37.502;2023-03-01T06:22:54;6.50;;;3.90;;
32407;SDS011;18869;55.970;37.502;2023-03-01T06:25:24;4.03;;;3.83;;
32407;SDS011;18869;55.970;37.502;2023-03-01T06:27:52;3.90;;;3.50;;
32407;SDS011;18869;55.970;37.502;2023-03-01T06:30:20;4.03;;;3.73;;
32407;SDS011;18869;55.970;37.502;2023-03-01T06:32:51;4.53;;;3.40;;
32407;SDS011;18869;55.970;37.502;2023-03-01T06:35:26;5.90;;;4.40;;
32407;SDS011;18869;55.970;37.502;2023-03-01T06:37:55;5.57;;;3.80;;
32407;SDS011;18869;55.970;37.502;2023-03-01T06:40:25;4.53;;;3.70;;
32407;SDS011;18869;55.970;37.502;2023-03-01T06:42:52;3.40;;;3.20;;
32407;SDS011;18869;55.970;37.502;2023-03-01T06:45:21;6.47;;;3.77;;
32407;SDS011;18869;55.970;37.502;2023-03-01T06:47:49;3.47;;;3.10;;
32407;SDS011;18869;55.970;37.502;2023-03-01T06:50:17;3.70;;;3.43;;
32407;SDS011;18869;55.970;37.502;2023-03-01T06:52:45;3.93;;;3.63;;
32407;SDS011;18869;55.970;37.502;2023-03-01T06:55:13;4.17;;;3.60;;
32407;SDS011;18869;55.970;37.502;2023-03-01T06:57:43;4.37;;;3.80;;
32407;SDS011;18869;55.970;37.502;2023-03-01T07:00:11;3.17;;;2.87;;
32407;SDS011;18869;55.970;37.502;2023-03-01T07:02:39;4.47;;;3.47;;
32407;SDS011;18869;55.970;37.502;2023-03-01T07:05:07;3.33;;;2.97;;
32407;SDS011;18869;55.970;37.502;2023-03-01T07:07:35;3.70;;;2.70;;
32407;SDS011;18869;55.970;37.502;2023-03-01T07:10:03;5.00;;;2.90;;
32407;SDS011;18869;55.970;37.502;2023-03-01T07:12:31;2.97;;;2.23;;
32407;SDS011;18869;55.970;37.502;2023-03-01T07:15:01;2.80;;;2.33;;
32407;SDS011;18869;55.970;37.502;2023-03-01T07:17:29;2.10;;;1.90;;
32407;SDS011;18869;55.970;37.502;2023-03-01T07:20:00;4.23;;;1.87;;
32407;SDS011;18869;55.970;37.502;2023-03-01T07:22:29;3.07;;;2.13;;
32407;SDS011;18869;55.970;37.502;2023-03-01T07:24:57;3.00;;;1.83;;
32407;SDS011;18869;55.970;37.502;2023-03-01T07:27:24;2.80;;;1.80;;
32407;SDS011;18869;55.970;37.502;2023-03-01T07:29:52;2.57;;;1.70;;
32407;SDS011;18869;55.970;37.502;2023-03-01T07:32:21;3.87;;;1.50;;
32407;SDS011;18869;55.970;37.502;2023-03-01T07:34:48;2.50;;;1.83;;
32407;SDS011;18869;55.970;37.502;2023-03-01T07:37:17;3.57;;;1.70;;
32407;SDS011;18869;55.970;37.502;2023-03-01T07:39:44;3.53;;;2.00;;
32407;SDS011;18869;55.970;37.502;2023-03-01T07:42:13;3.20;;;2.00;;
32407;SDS011;18869;55.970;37.502;2023-03-01T07:44:40;3.97;;;2.00;;
32407;SDS011;18869;55.970;37.502;2023-03-01T07:47:08;3.87;;;2.23;;
32407;SDS011;18869;55.970;37.502;2023-03-01T07:49:37;3.20;;;2.07;;
32407;SDS011;18869;55.970;37.502;2023-03-01T07:52:05;3.37;;;2.00;;
32407;SDS011;18869;55.970;37.502;2023-03-01T07:54:32;2.43;;;1.97;;
32407;SDS011;18869;55.970;37.502;2023-03-01T07:57:00;3.03;;;2.20;;
32407;SDS011;18869;55.970;37.502;2023-03-01T07:59:28;3.57;;;1.90;;
32407;SDS011;18869;55.970;37.502;2023-03-01T08:01:55;3.97;;;2.23;;
32407;SDS011;18869;55.970;37.502;2023-03-01T08:04:24;2.70;;;2.33;;
32407;SDS011;18869;55.970;37.502;2023-03-01T08:06:53;2.27;;;1.97;;
32407;SDS011;18869;55.970;37.502;2023-03-01T08:09:21;2.30;;;1.80;;
32407;SDS011;18869;55.970;37.502;2023-03-01T08:11:49;3.37;;;2.47;;
32407;SDS011;18869;55.970;37.502;2023-03-01T08:14:17;4.80;;;3.30;;
32407;SDS011;18869;55.970;37.502;2023-03-01T08:16:44;3.80;;;2.43;;
32407;SDS011;18869;55.970;37.502;2023-03-01T08:19:12;2.17;;;1.30;;
32407;SDS011;18869;55.970;37.502;2023-03-01T08:21:43;2.23;;;1.10;;
32407;SDS011;18869;55.970;37.502;2023-03-01T08:24:11;2.53;;;1.30;;
32407;SDS011;18869;55.970;37.502;2023-03-01T08:26:39;2.37;;;1.50;;
32407;SDS011;18869;55.970;37.502;2023-03-01T08:29:07;3.67;;;1.90;;
32407;SDS011;18869;55.970;37.502;2023-03-01T08:31:35;2.20;;;1.40;;
32407;SDS011;18869;55.970;37.502;2023-03-01T08:34:06;3.97;;;1.13;;
32407;SDS011;18869;55.970;37.502;2023-03-01T08:36:38;1.87;;;1.40;;
32407;SDS011;18869;55.970;37.502;2023-03-01T08:39:07;3.43;;;1.30;;
32407;SDS011;18869;55.970;37.502;2023-03-01T08:41:38;3.60;;;1.50;;
32407;SDS011;18869;55.970;37.502;2023-03-01T08:44:05;2.73;;;1.70;;
32407;SDS011;18869;55.970;37.502;2023-03-01T08:46:36;2.40;;;1.20;;
32407;SDS011;18869;55.970;37.502;2023-03-01T08:49:06;2.30;;;1.57;;
32407;SDS011;18869;55.970;37.502;2023-03-01T08:51:35;2.53;;;1.40;;
32407;SDS011;18869;55.970;37.502;2023-03-01T08:54:03;3.70;;;1.43;;
32407;SDS011;18869;55.970;37.502;2023-03-01T08:56:31;2.33;;;1.50;;
32407;SDS011;18869;55.970;37.502;2023-03-01T08:59:00;4.07;;;1.10;;
32407;SDS011;18869;55.970;37.502;2023-03-01T09:01:28;2.50;;;1.33;;
32407;SDS011;18869;55.970;37.502;2023-03-01T09:03:55;2.60;;;1.47;;
32407;SDS011;18869;55.970;37.502;2023-03-01T09:06:23;3.07;;;1.53;;
32407;SDS011;18869;55.970;37.502;2023-03-01T09:08:51;4.70;;;2.93;;
32407;SDS011;18869;55.970;37.502;2023-03-01T09:11:19;5.60;;;3.03;;
32407;SDS011;18869;55.970;37.502;2023-03-01T09:13:48;6.60;;;4.43;;
32407;SDS011;18869;55.970;37.502;2023-03-01T09:16:19;2.47;;;1.77;;
32407;SDS011;18869;55.970;37.502;2023-03-01T09:18:48;2.70;;;1.27;;
32407;SDS011;18869;55.970;37.502;2023-03-01T09:21:18;1.90;;;1.20;;
32407;SDS011;18869;55.970;37.502;2023-03-01T09:23:46;3.13;;;1.20;;
32407;SDS011;18869;55.970;37.502;2023-03-01T09:26:15;1.47;;;1.00;;
32407;SDS011;18869;55.970;37.502;2023-03-01T09:28:45;2.70;;;1.40;;
32407;SDS011;18869;55.970;37.502;2023-03-01T09:31:13;2.13;;;1.00;;
32407;SDS011;18869;55.970;37.502;2023-03-01T09:33:42;2.77;;;1.00;;
32407;SDS011;18869;55.970;37.502;2023-03-01T09:36:10;3.37;;;1.20;;
32407;SDS011;18869;55.970;37.502;2023-03-01T09:38:39;2.53;;;1.37;;
32407;SDS011;18869;55.970;37.502;2023-03-01T09:41:09;2.40;;;1.00;;
32407;SDS011;18869;55.970;37.502;2023-03-01T09:43:40;2.53;;;1.40;;
32407;SDS011;18869;55.970;37.502;2023-03-01T09:46:12;1.30;;;1.10;;
32407;SDS011;18869;55.970;37.502;2023-03-01T09:48:44;1.67;;;1.40;;
32407;SDS011;18869;55.970;37.502;2023-03-01T09:51:14;1.50;;;1.07;;
32407;SDS011;18869;55.970;37.502;2023-03-01T09:53:45;1.50;;;0.90;;
32407;SDS011;18869;55.970;37.502;2023-03-01T09:56:14;2.53;;;1.40;;
32407;SDS011;18869;55.970;37.502;2023-03-01T09:58:48;3.23;;;1.67;;
32407;SDS011;18869;55.970;37.502;2023-03-01T10:01:31;3.13;;;1.87;;
32407;SDS011;18869;55.970;37.502;2023-03-01T10:04:11;3.43;;;2.17;;
32407;SDS011;18869;55.970;37.502;2023-03-01T10:06:46;3.93;;;3.10;;
32407;SDS011;18869;55.970;37.502;2023-03-01T10:09:22;5.37;;;3.30;;
32407;SDS011;18869;55.970;37.502;2023-03-01T10:11:52;5.97;;;3.00;;
32407;SDS011;18869;55.970;37.502;2023-03-01T10:14:24;4.80;;;2.20;;
32407;SDS011;18869;55.970;37.502;2023-03-01T10:16:58;2.90;;;2.03;;
32407;SDS011;18869;55.970;37.502;2023-03-01T10:19:31;2.37;;;2.00;;
32407;SDS011;18869;55.970;37.502;2023-03-01T10:22:03;2.83;;;2.40;;
32407;SDS011;18869;55.970;37.502;2023-03-01T10:24:34;4.87;;;2.33;;
32407;SDS011;18869;55.970;37.502;2023-03-01T10:27:04;2.80;;;2.50;;
32407;SDS011;18869;55.970;37.502;2023-03-01T10:29:34;6.90;;;2.50;;
32407;SDS011;18869;55.970;37.502;2023-03-01T10:32:08;4.60;;;2.23;;
32407;SDS011;18869;55.970;37.502;2023-03-01T10:34:38;4.27;;;2.93;;
32407;SDS011;18869;55.970;37.502;2023-03-01T10:37:10;4.70;;;2.47;;
32407;SDS011;18869;55.970;37.502;2023-03-01T10:39:57;2.53;;;2.20;;
32407;SDS011;18869;55.970;37.502;2023-03-01T10:42:26;6.97;;;2.90;;
32407;SDS011;18869;55.970;37.502;2023-03-01T10:44:57;3.97;;;2.73;;
32407;SDS011;18869;55.970;37.502;2023-03-01T10:47:26;5.03;;;2.93;;
32407;SDS011;18869;55.970;37.502;2023-03-01T10:49:58;3.10;;;2.43;;
32407;SDS011;18869;55.970;37.502;2023-03-01T10:52:31;3.80;;;2.73;;
32407;SDS011;18869;55.970;37.502;2023-03-01T10:55:01;3.93;;;2.40;;
32407;SDS011;18869;55.970;37.502;2023-03-01T10:57:33;4.30;;;2.60;;
32407;SDS011;18869;55.970;37.502;2023-03-01T11:00:19;4.73;;;2.60;;
32407;SDS011;18869;55.970;37.502;2023-03-01T11:03:01;3.47;;;2.90;;
32407;SDS011;18869;55.970;37.502;2023-03-01T11:05:31;3.37;;;3.07;;
32407;SDS011;18869;55.970;37.502;2023-03-01T11:08:02;3.97;;;3.03;;
32407;SDS011;18869;55.970;37.502;2023-03-01T11:10:30;4.33;;;3.93;;
32407;SDS011;18869;55.970;37.502;2023-03-01T11:13:06;6.73;;;3.53;;
32407;SDS011;18869;55.970;37.502;2023-03-01T11:15:35;4.27;;;2.70;;
32407;SDS011;18869;55.970;37.502;2023-03-01T11:18:03;5.30;;;2.90;;
32407;SDS011;18869;55.970;37.502;2023-03-01T11:20:33;2.63;;;2.33;;
32407;SDS011;18869;55.970;37.502;2023-03-01T11:23:02;4.17;;;2.73;;
32407;SDS011;18869;55.970;37.502;2023-03-01T11:25:35;3.67;;;2.57;;
32407;SDS011;18869;55.970;37.502;2023-03-01T11:28:06;2.57;;;2.20;;
32407;SDS011;18869;55.970;37.502;2023-03-01T11:30:38;2.73;;;2.30;;
32407;SDS011;18869;55.970;37.502;2023-03-01T11:33:11;3.63;;;2.50;;
32407;SDS011;18869;55.970;37.502;2023-03-01T11:35:46;3.33;;;2.53;;
32407;SDS011;18869;55.970;37.502;2023-03-01T11:38:21;2.27;;;2.17;;
32407;SDS011;18869;55.970;37.502;2023-03-01T11:40:50;2.30;;;2.10;;
32407;SDS011;18869;55.970;37.502;2023-03-01T11:43:28;3.07;;;2.50;;
32407;SDS011;18869;55.970;37.502;2023-03-01T11:46:11;6.27;;;2.87;;
32407;SDS011;18869;55.970;37.502;2023-03-01T11:48:52;3.10;;;2.80;;
32407;SDS011;18869;55.970;37.502;2023-03-01T11:51:31;6.30;;;2.33;;
32407;SDS011;18869;55.970;37.502;2023-03-01T11:54:09;3.30;;;2.80;;
32407;SDS011;18869;55.970;37.502;2023-03-01T11:56:45;3.40;;;3.17;;
32407;SDS011;18869;55.970;37.502;2023-03-01T11:59:19;2.77;;;2.57;;
32407;SDS011;18869;55.970;37.502;2023-03-01T12:04:59;4.70;;;2.80;;
32407;SDS011;18869;55.970;37.502;2023-03-01T12:07:57;3.10;;;2.90;;
32407;SDS011;18869;55.970;37.502;2023-03-01T12:10:32;3.20;;;3.00;;
32407;SDS011;18869;55.970;37.502;2023-03-01T12:13:13;2.63;;;2.53;;
32407;SDS011;18869;55.970;37.502;2023-03-01T12:15:54;3.63;;;3.43;;
32407;SDS011;18869;55.970;37.502;2023-03-01T12:18:40;3.27;;;3.03;;
32407;SDS011;18869;55.970;37.502;2023-03-01T12:21:18;4.73;;;2.73;;
32407;SDS011;18869;55.970;37.502;2023-03-01T12:24:10;3.47;;;3.17;;
32407;SDS011;18869;55.970;37.502;2023-03-01T12:27:00;4.83;;;4.30;;
32407;SDS011;18869;55.970;37.502;2023-03-01T12:29:38;3.30;;;3.00;;
32407;SDS011;18869;55.970;37.502;2023-03-01T12:32:25;4.70;;;4.30;;
32407;SDS011;18869;55.970;37.502;2023-03-01T12:35:03;4.07;;;3.63;;
32407;SDS011;18869;55.970;37.502;2023-03-01T12:37:41;6.37;;;4.30;;
32407;SDS011;18869;55.970;37.502;2023-03-01T12:43:10;4.57;;;4.17;;
32407;SDS011;18869;55.970;37.502;2023-03-01T12:45:46;3.40;;;3.10;;
32407;SDS011;18869;55.970;37.502;2023-03-01T12:48:22;3.30;;;3.10;;
32407;SDS011;18869;55.970;37.502;2023-03-01T12:50:55;3.57;;;3.30;;
32407;SDS011;18869;55.970;37.502;2023-03-01T12:53:26;3.63;;;3.37;;
32407;SDS011;18869;55.970;37.502;2023-03-01T12:55:58;3.20;;;3.00;;
32407;SDS011;18869;55.970;37.502;2023-03-01T12:58:32;3.40;;;3.10;;
32407;SDS011;18869;55.970;37.502;2023-03-01T13:01:07;3.10;;;2.90;;
32407;SDS011;18869;55.970;37.502;2023-03-01T13:03:48;3.53;;;3.23;;
32407;SDS011;18869;55.970;37.502;2023-03-01T13:06:32;3.17;;;2.93;;
32407;SDS011;18869;55.970;37.502;2023-03-01T13:09:09;5.03;;;3.80;;
32407;SDS011;18869;55.970;37.502;2023-03-01T13:11:42;3.53;;;3.17;;
32407;SDS011;18869;55.970;37.502;2023-03-01T13:17:04;4.60;;;3.23;;
32407;SDS011;18869;55.970;37.502;2023-03-01T13:19:32;3.10;;;2.90;;
32407;SDS011;18869;55.970;37.502;2023-03-01T13:22:03;3.80;;;3.47;;
32407;SDS011;18869;55.970;37.502;2023-03-01T13:25:00;4.70;;;4.03;;
32407;SDS011;18869;55.970;37.502;2023-03-01T13:27:29;3.67;;;3.33;;
32407;SDS011;18869;55.970;37.502;2023-03-01T13:30:00;3.47;;;3.27;;
32407;SDS011;18869;55.970;37.502;2023-03-01T13:32:31;3.73;;;3.30;;
32407;SDS011;18869;55.970;37.502;2023-03-01T13:34:59;4.43;;;4.13;;
32407;SDS011;18869;55.970;37.502;2023-03-01T13:37:29;4.13;;;3.83;;
32407;SDS011;18869;55.970;37.502;2023-03-01T13:40:02;4.33;;;3.60;;
32407;SDS011;18869;55.970;37.502;2023-03-01T13:42:36;4.33;;;3.57;;
32407;SDS011;18869;55.970;37.502;2023-03-01T13:45:16;3.80;;;3.50;;
32407;SDS011;18869;55.970;37.502;2023-03-01T13:47:49;5.33;;;3.53;;
32407;SDS011;18869;55.970;37.502;2023-03-01T13:50:21;4.63;;;3.70;;
32407;SDS011;18869;55.970;37.502;2023-03-01T13:52:53;3.83;;;3.53;;
32407;SDS011;18869;55.970;37.502;2023-03-01T13:55:26;3.87;;;3.27;;
32407;SDS011;18869;55.970;37.502;2023-03-01T13:57:57;4.23;;;3.87;;
32407;SDS011;18869;55.970;37.502;2023-03-01T14:00:27;4.17;;;3.93;;
32407;SDS011;18869;55.970;37.502;2023-03-01T14:03:00;4.30;;;4.00;;
32407;SDS011;18869;55.970;37.502;2023-03-01T14:05:38;5.80;;;3.87;;
32407;SDS011;18869;55.970;37.502;2023-03-01T14:08:21;3.83;;;3.63;;
32407;SDS011;18869;55.970;37.502;2023-03-01T14:10:54;4.00;;;3.67;;
32407;SDS011;18869;55.970;37.502;2023-03-01T14:13:38;3.97;;;3.77;;
32407;SDS011;18869;55.970;37.502;2023-03-01T14:16:18;4.00;;;3.70;;
32407;SDS011;18869;55.970;37.502;2023-03-01T14:18:54;3.83;;;3.53;;
32407;SDS011;18869;55.970;37.502;2023-03-01T14:21:27;4.93;;;4.20;;
32407;SDS011;18869;55.970;37.502;2023-03-01T14:23:58;4.53;;;4.33;;
32407;SDS011;18869;55.970;37.502;2023-03-01T14:26:26;4.27;;;3.93;;
32407;SDS011;18869;55.970;37.502;2023-03-01T14:28:54;4.27;;;3.97;;
32407;SDS011;18869;55.970;37.502;2023-03-01T14:31:34;3.97;;;3.70;;
32407;SDS011;18869;55.970;37.502;2023-03-01T14:34:02;4.83;;;4.30;;
32407;SDS011;18869;55.970;37.502;2023-03-01T14:36:32;3.93;;;3.70;;
32407;SDS011;18869;55.970;37.502;2023-03-01T14:39:02;5.77;;;3.70;;
32407;SDS011;18869;55.970;37.502;2023-03-01T14:41:43;4.30;;;4.00;;
32407;SDS011;18869;55.970;37.502;2023-03-01T14:44:12;5.10;;;4.20;;
32407;SDS011;18869;55.970;37.502;2023-03-01T14:46:44;4.70;;;3.70;;
32407;SDS011;18869;55.970;37.502;2023-03-01T14:49:12;4.80;;;4.50;;
32407;SDS011;18869;55.970;37.502;2023-03-01T14:51:42;4.60;;;4.07;;
32407;SDS011;18869;55.970;37.502;2023-03-01T14:54:24;4.40;;;4.00;;
32407;SDS011;18869;55.970;37.502;2023-03-01T14:56:54;4.70;;;4.33;;
32407;SDS011;18869;55.970;37.502;2023-03-01T14:59:26;5.20;;;4.90;;
32407;SDS011;18869;55.970;37.502;2023-03-01T15:01:55;3.97;;;3.77;;
32407;SDS011;18869;55.970;37.502;2023-03-01T15:04:23;4.83;;;4.27;;